createdAt,value
2023-04-22T10:07:30.681Z,1015.48
2023-04-22T10:07:41.808Z,1015.49
2023-04-22T10:07:52.007Z,1015.42
2023-04-22T10:08:02.210Z,1015.38
2023-04-22T10:08:12.759Z,1015.41
2023-04-22T10:08:23.176Z,1015.38
2023-04-22T10:08:32.421Z,1015.37
2023-04-22T10:08:42.419Z,1015.38
2023-04-22T10:08:52.707Z,1015.34
2023-04-22T10:09:02.744Z,1015.40
2023-04-22T10:09:12.867Z,1015.40
2023-04-22T10:09:33.048Z,1015.41
2023-04-22T10:09:43.172Z,1015.43
2023-04-22T10:09:53.508Z,1015.40
2023-04-22T10:10:03.533Z,1015.39
2023-04-22T10:10:13.731Z,1015.40
2023-04-22T10:10:23.764Z,1015.33
2023-04-22T10:10:33.813Z,1015.34
2023-04-22T10:10:43.886Z,1015.34
2023-04-22T10:10:54.154Z,1015.35
2023-04-22T10:11:04.077Z,1015.35
2023-04-22T10:11:14.341Z,1015.33
2023-04-22T10:11:24.491Z,1015.34
2023-04-22T10:11:35.256Z,1015.37
2023-04-22T10:11:47.335Z,1015.32
2023-04-22T10:11:54.904Z,1015.40
2023-04-22T10:12:05.081Z,1015.36
2023-04-22T10:12:18.619Z,1015.41
2023-04-22T10:12:35.720Z,1015.37
2023-04-22T10:12:42.699Z,1015.39
2023-04-22T10:12:53.286Z,1015.37
2023-04-22T10:13:02.837Z,1015.40
2023-04-22T10:13:12.143Z,1015.37
2023-04-22T10:13:22.428Z,1015.39
2023-04-22T10:13:32.405Z,1015.38
2023-04-22T10:13:52.613Z,1015.39
2023-04-22T10:14:02.873Z,1015.42
2023-04-22T10:14:12.862Z,1015.40
2023-04-22T10:14:23.023Z,1015.38
2023-04-22T10:14:33.105Z,1015.36
2023-04-22T10:14:43.212Z,1015.36
2023-04-22T10:14:53.355Z,1015.39
2023-04-22T10:15:03.538Z,1015.35
2023-04-22T10:15:13.765Z,1015.34
2023-04-22T10:15:25.685Z,1015.44
2023-04-22T10:15:34.183Z,1015.40
2023-04-22T10:15:44.095Z,1015.40
2023-04-22T10:15:54.264Z,1015.42
2023-04-22T10:16:05.270Z,1015.39
2023-04-22T10:16:14.459Z,1015.39
2023-04-22T10:16:24.542Z,1015.39
2023-04-22T10:16:34.568Z,1015.36
2023-04-22T10:16:44.814Z,1015.40
2023-04-22T10:16:54.883Z,1015.41
2023-04-22T10:17:15.163Z,1015.37
2023-04-22T10:17:26.402Z,1015.40
2023-04-22T10:17:35.481Z,1015.42
2023-04-22T10:17:45.605Z,1015.35
2023-04-22T10:17:56.826Z,1015.38
2023-04-22T10:18:06.600Z,1015.35
2023-04-22T10:18:15.903Z,1015.36
2023-04-22T10:18:36.119Z,1015.36
2023-04-22T10:18:49.348Z,1015.40
2023-04-22T10:18:56.338Z,1015.40
2023-04-22T10:19:06.536Z,1015.43
2023-04-22T10:19:16.588Z,1015.43
2023-04-22T10:19:26.705Z,1015.40
2023-04-22T10:19:36.806Z,1015.37
2023-04-22T10:19:57.060Z,1015.39
2023-04-22T10:20:08.134Z,1015.40
2023-04-22T10:20:18.093Z,1015.40
2023-04-22T10:20:28.223Z,1015.39
2023-04-22T10:20:38.015Z,1015.40
2023-04-22T10:20:48.657Z,1015.39
2023-04-22T10:21:01.717Z,1015.37
2023-04-22T10:21:18.063Z,1015.37
2023-04-22T10:21:28.070Z,1015.37
2023-04-22T10:21:38.329Z,1015.39
2023-04-22T10:21:48.527Z,1015.38
2023-04-22T10:21:58.507Z,1015.36
2023-04-22T10:22:08.700Z,1015.34
2023-04-22T10:22:18.955Z,1015.36
2023-04-22T10:22:29.003Z,1015.33
2023-04-22T10:22:39.116Z,1015.36
2023-04-22T10:22:49.217Z,1015.31
2023-04-22T10:22:59.436Z,1015.32
2023-04-22T10:23:09.378Z,1015.30
2023-04-22T10:23:19.518Z,1015.31
2023-04-22T10:23:30.075Z,1015.34
2023-04-22T10:23:41.148Z,1015.32
2023-04-22T10:23:49.887Z,1015.33
2023-04-22T10:24:00.667Z,1015.28
2023-04-22T10:24:11.237Z,1015.27
2023-04-22T10:24:21.236Z,1015.28
2023-04-22T10:24:31.318Z,1015.31
2023-04-22T10:24:50.565Z,1015.28
2023-04-22T10:25:00.660Z,1015.30
2023-04-22T10:25:10.822Z,1015.29
2023-04-22T10:25:20.781Z,1015.21
2023-04-22T10:25:31.072Z,1015.21
2023-04-22T10:25:41.056Z,1015.26
2023-04-22T10:25:51.261Z,1015.25
2023-04-22T10:26:01.339Z,1015.28
2023-04-22T10:26:11.495Z,1015.28
2023-04-22T10:26:21.680Z,1015.28
2023-04-22T10:26:31.650Z,1015.23
2023-04-22T10:26:43.625Z,1015.27
2023-04-22T10:26:51.918Z,1015.24
2023-04-22T10:27:02.087Z,1015.25
2023-04-22T10:27:12.182Z,1015.26
2023-04-22T10:27:23.126Z,1015.28
2023-04-22T10:27:32.363Z,1015.28
2023-04-22T10:27:52.812Z,1015.22
2023-04-22T10:28:02.861Z,1015.27
2023-04-22T10:28:12.900Z,1015.26
2023-04-22T10:28:23.178Z,1015.24
2023-04-22T10:28:34.822Z,1015.21
2023-04-22T10:28:43.279Z,1015.25
2023-04-22T10:28:54.691Z,1015.21
2023-04-22T10:29:07.926Z,1015.21
2023-04-22T10:29:14.001Z,1015.21
2023-04-22T10:29:24.183Z,1015.20
2023-04-22T10:29:44.654Z,1015.23
2023-04-22T10:29:54.567Z,1015.17
2023-04-22T10:30:04.841Z,1015.19
2023-04-22T10:30:14.981Z,1015.19
2023-04-22T10:30:25.113Z,1015.19
2023-04-22T10:30:35.219Z,1015.18
2023-04-22T10:30:45.211Z,1015.19
2023-04-22T10:30:55.395Z,1015.21
2023-04-22T10:31:06.182Z,1015.19
2023-04-22T10:31:15.687Z,1015.17
2023-04-22T10:31:27.202Z,1015.21
2023-04-22T10:31:36.573Z,1015.20
2023-04-22T10:31:46.554Z,1015.22
2023-04-22T10:31:57.237Z,1015.20
2023-04-22T10:32:10.622Z,1015.16
2023-04-22T10:32:17.915Z,1015.18
2023-04-22T10:32:30.350Z,1015.16
2023-04-22T10:32:37.194Z,1015.16
2023-04-22T10:32:48.647Z,1015.17
2023-04-22T10:32:58.314Z,1015.17
2023-04-22T10:33:09.250Z,1015.10
2023-04-22T10:33:18.359Z,1015.10
2023-04-22T10:33:38.796Z,1015.12
2023-04-22T10:33:48.025Z,1015.08
2023-04-22T10:33:58.068Z,1015.03
2023-04-22T10:34:08.282Z,1015.05
2023-04-22T10:34:18.352Z,1015.01
2023-04-22T10:34:29.366Z,1015.03
2023-04-22T10:34:40.670Z,1014.99
2023-04-22T10:34:49.445Z,1015.00
2023-04-22T10:34:58.883Z,1015.03
2023-04-22T10:35:09.835Z,1014.97
2023-04-22T10:35:19.030Z,1014.98
2023-04-22T10:35:29.807Z,1014.97
2023-04-22T10:35:49.382Z,1014.92
2023-04-22T10:35:59.540Z,1014.89
2023-04-22T10:36:10.336Z,1014.82
2023-04-22T10:36:20.115Z,1014.90
2023-04-22T10:36:30.813Z,1014.94
2023-04-22T10:36:40.776Z,1014.93
2023-04-22T10:36:50.213Z,1014.95
2023-04-22T10:37:00.766Z,1014.94
2023-04-22T10:37:11.306Z,1014.94
2023-04-22T10:37:21.318Z,1014.95
2023-04-22T10:37:33.196Z,1014.95
2023-04-22T10:37:41.153Z,1014.97
2023-04-22T10:37:50.842Z,1014.98
2023-04-22T10:38:01.105Z,1014.94
2023-04-22T10:38:11.804Z,1015.01
2023-04-22T10:38:31.063Z,1014.97
2023-04-22T10:38:41.294Z,1014.97
2023-04-22T10:38:51.466Z,1014.88
2023-04-22T10:39:03.762Z,1014.91
2023-04-22T10:39:11.732Z,1014.92
2023-04-22T10:39:21.909Z,1014.94
2023-04-22T10:39:31.990Z,1014.92
2023-04-22T10:39:42.544Z,1014.91
2023-04-22T10:39:52.214Z,1014.93
2023-04-22T10:40:12.478Z,1014.88
2023-04-22T10:40:22.572Z,1014.86
2023-04-22T10:40:32.732Z,1014.83
2023-04-22T10:40:42.916Z,1014.85
2023-04-22T10:40:53.165Z,1014.82
2023-04-22T10:41:03.835Z,1014.84
2023-04-22T10:41:13.329Z,1014.73
2023-04-22T10:41:23.584Z,1014.77
2023-04-22T10:41:34.197Z,1014.77
2023-04-22T10:41:43.662Z,1014.69
2023-04-22T10:41:54.668Z,1014.69
2023-04-22T10:42:03.907Z,1014.69
2023-04-22T10:42:14.049Z,1014.67
2023-04-22T10:42:24.149Z,1014.61
2023-04-22T10:42:34.138Z,1014.57
2023-04-22T10:42:44.356Z,1014.59
2023-04-22T10:43:04.669Z,1014.54
2023-04-22T10:43:14.747Z,1014.57
2023-04-22T10:43:24.855Z,1014.59
2023-04-22T10:43:34.739Z,1014.58
2023-04-22T10:43:45.188Z,1014.58
2023-04-22T10:43:54.939Z,1014.57
2023-04-22T10:44:05.092Z,1014.59
2023-04-22T10:44:15.120Z,1014.55
2023-04-22T10:44:25.288Z,1014.59
2023-04-22T10:44:35.365Z,1014.60
2023-04-22T10:44:45.497Z,1014.58
2023-04-22T10:44:55.653Z,1014.58
2023-04-22T10:45:05.737Z,1014.56
2023-04-22T10:45:16.679Z,1014.59
2023-04-22T10:45:25.993Z,1014.57
2023-04-22T10:45:36.134Z,1014.56
2023-04-22T10:45:46.237Z,1014.59
2023-04-22T10:45:56.596Z,1014.56
2023-04-22T10:46:06.485Z,1014.59
2023-04-22T10:46:27.628Z,1014.61
2023-04-22T10:46:36.828Z,1014.58
2023-04-22T10:46:47.013Z,1014.58
2023-04-22T10:46:57.097Z,1014.59
2023-04-22T10:47:07.241Z,1014.60
2023-04-22T10:47:17.405Z,1014.59
2023-04-22T10:47:37.650Z,1014.61
2023-04-22T10:47:47.889Z,1014.60
2023-04-22T10:47:57.901Z,1014.59
2023-04-22T10:48:08.032Z,1014.61
2023-04-22T10:48:18.257Z,1014.58
2023-04-22T10:48:28.233Z,1014.58
2023-04-22T10:48:39.337Z,1014.66
2023-04-22T10:48:48.498Z,1014.66
2023-04-22T10:48:58.672Z,1014.68
2023-04-22T10:49:08.773Z,1014.73
2023-04-22T10:49:18.729Z,1014.73
2023-04-22T10:49:29.161Z,1014.71
2023-04-22T10:49:49.217Z,1014.76
2023-04-22T10:49:59.254Z,1014.82
2023-04-22T10:50:09.435Z,1014.79
2023-04-22T10:50:19.541Z,1014.81
2023-04-22T10:50:29.676Z,1014.81
2023-04-22T10:50:39.859Z,1014.83
2023-04-22T10:50:50.411Z,1014.80
2023-04-22T10:51:00.264Z,1014.80
2023-04-22T10:51:11.344Z,1014.81
2023-04-22T10:51:20.315Z,1014.85
2023-04-22T10:51:30.518Z,1014.81
2023-04-22T10:51:40.664Z,1014.84
2023-04-22T10:51:50.840Z,1014.87
2023-04-22T10:52:00.951Z,1014.85
2023-04-22T10:52:21.012Z,1014.86
2023-04-22T10:52:31.035Z,1014.83
2023-04-22T10:52:41.263Z,1014.85
2023-04-22T10:52:51.406Z,1014.81
2023-04-22T10:53:01.411Z,1014.78
2023-04-22T10:53:11.699Z,1014.79
2023-04-22T10:53:21.819Z,1014.81
2023-04-22T10:53:31.881Z,1014.81
2023-04-22T10:53:42.132Z,1014.76
2023-04-22T10:53:52.255Z,1014.77
2023-04-22T10:54:02.357Z,1014.77
2023-04-22T10:54:12.538Z,1014.80
2023-04-22T10:54:22.763Z,1014.75
2023-04-22T10:54:32.968Z,1014.80
2023-04-22T10:54:42.937Z,1014.75
2023-04-22T10:54:53.289Z,1014.77
2023-04-22T10:55:03.307Z,1014.78
2023-04-22T10:55:14.156Z,1014.78
2023-04-22T10:55:23.505Z,1014.79
2023-04-22T10:55:33.696Z,1014.82
2023-04-22T10:55:43.774Z,1014.86
2023-04-22T10:55:53.895Z,1014.86
2023-04-22T10:56:03.982Z,1014.85
2023-04-22T10:56:24.187Z,1014.82
2023-04-22T10:56:34.481Z,1014.85
2023-04-22T10:56:57.996Z,1014.84
2023-04-22T10:57:06.663Z,1014.85
2023-04-22T10:57:15.263Z,1014.88
2023-04-22T10:57:24.942Z,1014.89
2023-04-22T10:57:34.956Z,1014.90
2023-04-22T10:57:45.180Z,1014.88
2023-04-22T10:57:55.307Z,1014.87
2023-04-22T10:58:15.553Z,1014.88
2023-04-22T10:58:25.626Z,1014.89
2023-04-22T10:58:35.804Z,1014.87
2023-04-22T10:58:45.861Z,1014.88
2023-04-22T10:58:55.962Z,1014.91
2023-04-22T10:59:06.169Z,1014.88
2023-04-22T10:59:16.277Z,1014.93
2023-04-22T10:59:27.069Z,1014.93
2023-04-22T10:59:36.607Z,1014.93
2023-04-22T10:59:47.462Z,1014.91
2023-04-22T10:59:56.768Z,1014.86
2023-04-22T11:00:06.931Z,1014.93
2023-04-22T11:00:17.127Z,1014.90
2023-04-22T11:00:28.231Z,1014.89
2023-04-22T11:00:53.826Z,1014.87
2023-04-22T11:01:00.063Z,1014.85
2023-04-22T11:01:07.751Z,1014.84
2023-04-22T11:01:21.302Z,1014.81
2023-04-22T11:01:28.376Z,1014.83
2023-04-22T11:01:38.268Z,1014.80
2023-04-22T11:01:48.114Z,1014.80
2023-04-22T11:02:08.024Z,1014.84
2023-04-22T11:02:17.998Z,1014.84
2023-04-22T11:02:28.300Z,1014.86
2023-04-22T11:02:38.310Z,1014.87
2023-04-22T11:02:48.407Z,1014.86
2023-04-22T11:02:58.638Z,1014.86
2023-04-22T11:03:08.850Z,1014.87
2023-04-22T11:03:19.005Z,1014.88
2023-04-22T11:03:29.792Z,1014.88
2023-04-22T11:03:39.428Z,1014.89
2023-04-22T11:03:49.246Z,1014.89
2023-04-22T11:04:00.084Z,1014.93
2023-04-22T11:04:09.560Z,1014.92
2023-04-22T11:04:20.679Z,1014.94
2023-04-22T11:04:30.117Z,1014.95
2023-04-22T11:04:39.939Z,1014.98
2023-04-22T11:04:49.963Z,1014.98
2023-04-22T11:05:00.058Z,1014.97
2023-04-22T11:05:11.218Z,1014.97
